createdAt,value
2016-10-13T00:00:17.018Z,0
2016-10-13T00:01:17.098Z,0
2016-10-13T00:02:17.144Z,0
2016-10-13T00:03:17.189Z,0
2016-10-13T00:04:17.246Z,0
2016-10-13T00:05:17.310Z,0
2016-10-13T00:06:17.346Z,0
2016-10-13T00:07:17.405Z,0
2016-10-13T00:08:17.460Z,0
2016-10-13T00:09:17.535Z,0
2016-10-13T00:10:17.587Z,0
2016-10-13T00:11:17.933Z,0
2016-10-13T00:12:17.699Z,0
2016-10-13T00:13:17.748Z,0
2016-10-13T00:14:17.786Z,0
2016-10-13T00:15:17.864Z,0
2016-10-13T00:16:17.927Z,0
2016-10-13T00:17:17.991Z,0
2016-10-13T00:18:18.031Z,0
2016-10-13T00:19:18.093Z,0
2016-10-13T00:20:18.137Z,0
2016-10-13T00:21:18.190Z,0
2016-10-13T00:22:18.254Z,0
2016-10-13T00:23:18.323Z,0
2016-10-13T00:24:18.370Z,0
2016-10-13T00:25:18.412Z,0
2016-10-13T00:26:18.472Z,0
2016-10-13T00:27:18.532Z,0
2016-10-13T00:28:18.593Z,0
2016-10-13T00:29:18.642Z,0
2016-10-13T00:30:18.689Z,0
2016-10-13T00:31:18.727Z,0
2016-10-13T00:32:18.788Z,0
2016-10-13T00:33:18.839Z,0
2016-10-13T00:34:18.911Z,0
2016-10-13T00:35:18.987Z,0
2016-10-13T00:36:19.029Z,0
2016-10-13T00:37:19.092Z,0
2016-10-13T00:38:19.136Z,0
2016-10-13T00:39:19.182Z,0
2016-10-13T00:40:19.258Z,0
2016-10-13T00:41:19.287Z,0
2016-10-13T00:42:19.345Z,0
2016-10-13T00:43:19.418Z,0
2016-10-13T00:44:19.451Z,0
2016-10-13T00:45:19.529Z,0
2016-10-13T00:46:19.586Z,0
2016-10-13T00:47:19.646Z,0
2016-10-13T00:48:19.686Z,0
2016-10-13T00:49:19.771Z,0
2016-10-13T00:50:19.824Z,0
2016-10-13T00:51:19.854Z,0
2016-10-13T00:52:19.916Z,0
2016-10-13T00:53:19.960Z,0
2016-10-13T00:54:20.017Z,0
2016-10-13T00:55:20.089Z,0
2016-10-13T00:56:20.152Z,0
2016-10-13T00:57:20.194Z,0
2016-10-13T00:58:20.250Z,0
2016-10-13T00:59:20.308Z,0
2016-10-13T01:00:20.349Z,0
2016-10-13T01:01:20.425Z,0
2016-10-13T01:02:20.465Z,0
2016-10-13T01:03:20.520Z,0
2016-10-13T01:04:20.574Z,0
2016-10-13T01:05:20.639Z,0
2016-10-13T01:06:20.674Z,0
2016-10-13T01:07:20.770Z,0
2016-10-13T01:08:20.802Z,0
2016-10-13T01:09:20.863Z,0
2016-10-13T01:10:20.923Z,0
2016-10-13T01:11:20.968Z,0
2016-10-13T01:12:21.021Z,0
2016-10-13T01:13:21.083Z,0
2016-10-13T01:14:21.118Z,0
2016-10-13T01:15:21.181Z,0
2016-10-13T01:16:21.229Z,0
2016-10-13T01:17:21.304Z,0
2016-10-13T01:18:21.364Z,0
2016-10-13T01:19:21.402Z,0
2016-10-13T01:20:21.466Z,0
2016-10-13T01:21:21.526Z,0
2016-10-13T01:22:21.570Z,0
2016-10-13T01:23:21.626Z,0
2016-10-13T01:24:21.691Z,0
2016-10-13T01:25:21.744Z,0
2016-10-13T01:26:21.798Z,0
2016-10-13T01:27:21.875Z,0
2016-10-13T01:28:21.923Z,0
2016-10-13T01:29:21.956Z,0
2016-10-13T01:30:22.031Z,0
2016-10-13T01:31:22.082Z,0
2016-10-13T01:32:22.132Z,0
2016-10-13T01:33:22.189Z,0
2016-10-13T01:34:22.246Z,0
2016-10-13T01:35:22.282Z,0
2016-10-13T01:36:22.363Z,0
2016-10-13T01:37:22.394Z,0
2016-10-13T01:38:22.471Z,0
2016-10-13T01:39:22.533Z,0
2016-10-13T01:40:22.582Z,0
2016-10-13T01:41:22.624Z,0
2016-10-13T01:42:22.685Z,0
2016-10-13T01:43:22.734Z,0
2016-10-13T01:44:22.788Z,0
2016-10-13T01:45:22.839Z,0
2016-10-13T01:46:22.907Z,0
2016-10-13T01:47:22.956Z,0
2016-10-13T01:48:23.033Z,0
2016-10-13T01:49:23.075Z,0
2016-10-13T01:50:23.129Z,0
2016-10-13T01:51:23.191Z,0
2016-10-13T01:52:23.436Z,0
2016-10-13T01:53:23.285Z,0
2016-10-13T01:54:23.350Z,0
2016-10-13T01:55:23.407Z,0
2016-10-13T01:56:23.470Z,0
2016-10-13T01:57:23.523Z,0
2016-10-13T01:58:23.579Z,0
2016-10-13T01:59:23.621Z,0
2016-10-13T02:00:23.704Z,0
2016-10-13T02:01:23.759Z,0
2016-10-13T02:02:23.821Z,0
2016-10-13T02:03:23.836Z,0
2016-10-13T02:04:23.920Z,0
2016-10-13T02:05:23.965Z,0
2016-10-13T02:06:24.037Z,0
2016-10-13T02:07:24.068Z,0
2016-10-13T02:08:24.117Z,0
2016-10-13T02:09:24.195Z,0
2016-10-13T02:10:24.229Z,0
2016-10-13T02:11:24.305Z,0
2016-10-13T02:12:24.342Z,0
2016-10-13T02:13:24.410Z,0
2016-10-13T02:14:24.453Z,0
2016-10-13T02:15:24.520Z,0
2016-10-13T02:16:24.586Z,0
2016-10-13T02:17:24.628Z,0
2016-10-13T02:18:24.669Z,0
2016-10-13T02:19:24.723Z,0
2016-10-13T02:20:24.806Z,0
2016-10-13T02:21:24.848Z,0
2016-10-13T02:22:24.933Z,0
2016-10-13T02:23:24.966Z,0
2016-10-13T02:24:25.017Z,0
2016-10-13T02:25:25.071Z,0
2016-10-13T02:26:25.132Z,0
2016-10-13T02:27:25.181Z,0
2016-10-13T02:28:25.259Z,0
2016-10-13T02:29:25.282Z,0
2016-10-13T02:30:25.362Z,0
2016-10-13T02:31:25.424Z,0
2016-10-13T02:32:25.462Z,0
2016-10-13T02:33:25.527Z,0
2016-10-13T02:34:25.590Z,0
2016-10-13T02:35:25.633Z,0
2016-10-13T02:36:25.701Z,0
2016-10-13T02:37:25.721Z,0
2016-10-13T02:38:25.784Z,0
2016-10-13T02:39:25.870Z,0
2016-10-13T02:40:25.917Z,0
2016-10-13T02:41:25.965Z,0
2016-10-13T02:42:26.017Z,0
2016-10-13T02:43:26.085Z,0
2016-10-13T02:44:26.117Z,0
2016-10-13T02:45:26.206Z,0
2016-10-13T02:46:26.249Z,0
2016-10-13T02:47:26.276Z,0
2016-10-13T02:48:26.346Z,0
2016-10-13T02:49:26.420Z,0
2016-10-13T02:50:26.470Z,0
2016-10-13T02:51:26.512Z,0
2016-10-13T02:52:26.560Z,0
2016-10-13T02:53:26.625Z,0
2016-10-13T02:54:26.682Z,0
2016-10-13T02:55:26.719Z,0
2016-10-13T02:56:26.796Z,0
2016-10-13T02:57:26.844Z,0
2016-10-13T02:58:26.898Z,0
2016-10-13T02:59:26.956Z,0
2016-10-13T03:00:27.011Z,0
2016-10-13T03:01:27.084Z,0
2016-10-13T03:02:27.108Z,0
2016-10-13T03:03:27.178Z,0
2016-10-13T03:04:27.560Z,0
2016-10-13T03:05:27.294Z,0
2016-10-13T03:06:27.344Z,0
2016-10-13T03:07:27.396Z,0
2016-10-13T03:08:27.465Z,0
2016-10-13T03:09:27.532Z,0
2016-10-13T03:10:27.561Z,0
2016-10-13T03:11:27.627Z,0
2016-10-13T03:12:27.682Z,0
2016-10-13T03:13:27.738Z,0
2016-10-13T03:14:27.793Z,0
2016-10-13T03:15:27.861Z,0
2016-10-13T03:16:27.905Z,0
2016-10-13T03:17:27.951Z,0
2016-10-13T03:18:28.001Z,0
2016-10-13T03:19:28.084Z,0
2016-10-13T03:20:28.119Z,0
2016-10-13T03:21:28.177Z,0
2016-10-13T03:22:28.238Z,0
2016-10-13T03:23:28.274Z,0
2016-10-13T03:24:28.353Z,0
2016-10-13T03:25:28.416Z,0
2016-10-13T03:26:28.452Z,0
2016-10-13T03:27:28.506Z,0
2016-10-13T03:28:28.573Z,0
2016-10-13T03:29:28.925Z,0
2016-10-13T03:30:28.680Z,0
2016-10-13T03:31:28.727Z,0
2016-10-13T03:32:28.817Z,0
2016-10-13T03:33:28.844Z,0
2016-10-13T03:34:28.898Z,0
2016-10-13T03:35:28.940Z,0
2016-10-13T03:36:29.320Z,0
2016-10-13T03:37:29.095Z,0
2016-10-13T03:38:29.142Z,0
2016-10-13T03:39:29.179Z,0
2016-10-13T03:40:29.534Z,0
2016-10-13T03:41:29.281Z,0
2016-10-13T03:42:29.334Z,0
2016-10-13T03:43:29.405Z,0
2016-10-13T03:44:29.464Z,0
2016-10-13T03:45:29.488Z,0
2016-10-13T03:46:29.576Z,0
2016-10-13T03:47:29.632Z,0
2016-10-13T03:48:29.704Z,0
2016-10-13T03:49:30.032Z,0
2016-10-13T03:50:30.091Z,0
2016-10-13T03:51:29.855Z,0
2016-10-13T03:52:29.898Z,0
2016-10-13T03:53:29.962Z,0
2016-10-13T03:54:30.021Z,0
2016-10-13T03:55:30.047Z,0
2016-10-13T03:56:30.136Z,0
2016-10-13T03:57:30.214Z,0
2016-10-13T03:58:30.243Z,0
2016-10-13T03:59:30.270Z,0
2016-10-13T04:00:30.344Z,0
2016-10-13T04:01:30.396Z,0
2016-10-13T04:02:30.437Z,0
2016-10-13T04:03:30.511Z,0
2016-10-13T04:04:30.565Z,0
2016-10-13T04:05:30.613Z,0
2016-10-13T04:06:30.677Z,0
2016-10-13T04:07:30.714Z,0
2016-10-13T04:08:30.805Z,0
2016-10-13T04:09:30.833Z,0
2016-10-13T04:10:30.911Z,0
2016-10-13T04:11:30.936Z,0
2016-10-13T04:12:31.002Z,0
2016-10-13T04:13:31.075Z,0
2016-10-13T04:14:31.462Z,0
2016-10-13T04:15:31.491Z,0
2016-10-13T04:16:31.266Z,0
2016-10-13T04:17:31.320Z,0
2016-10-13T04:18:31.333Z,0
2016-10-13T04:19:31.429Z,0
2016-10-13T04:20:31.433Z,0
2016-10-13T04:21:31.531Z,0
2016-10-13T04:22:31.565Z,0
2016-10-13T04:23:31.936Z,0
2016-10-13T04:24:31.688Z,0
2016-10-13T04:25:31.714Z,0
2016-10-13T04:26:31.788Z,0
2016-10-13T04:27:31.852Z,0
2016-10-13T04:28:31.897Z,0
2016-10-13T04:29:31.995Z,0
2016-10-13T04:30:32.008Z,0
2016-10-13T04:31:32.046Z,0
2016-10-13T04:32:32.407Z,0
2016-10-13T04:33:32.204Z,0
2016-10-13T04:34:32.235Z,0
2016-10-13T04:35:32.283Z,0
2016-10-13T04:36:32.365Z,0
2016-10-13T04:37:32.405Z,0
2016-10-13T04:38:32.481Z,0
2016-10-13T04:39:32.516Z,0
2016-10-13T04:40:32.583Z,0
2016-10-13T04:41:32.599Z,0
2016-10-13T04:42:32.672Z,0
2016-10-13T04:43:32.731Z,0
2016-10-13T04:44:32.783Z,0
2016-10-13T04:45:33.120Z,0
2016-10-13T04:46:32.884Z,0
2016-10-13T04:47:32.960Z,0
2016-10-13T04:48:33.017Z,0
2016-10-13T04:49:33.076Z,0
2016-10-13T04:50:33.127Z,0
2016-10-13T04:51:33.153Z,0
2016-10-13T04:52:33.259Z,0
2016-10-13T04:53:33.283Z,0
2016-10-13T04:54:33.348Z,0
2016-10-13T04:55:33.415Z,0
2016-10-13T04:56:33.458Z,0
2016-10-13T04:57:33.504Z,0
2016-10-13T04:58:33.590Z,0
2016-10-13T04:59:33.624Z,0
2016-10-13T05:00:33.688Z,0
2016-10-13T05:01:33.745Z,0
2016-10-13T05:02:33.810Z,0
2016-10-13T05:03:33.837Z,0
2016-10-13T05:04:33.901Z,0
2016-10-13T05:05:33.974Z,0
2016-10-13T05:06:34.002Z,0
2016-10-13T05:07:34.065Z,0
2016-10-13T05:08:34.124Z,0
2016-10-13T05:09:34.187Z,0
2016-10-13T05:10:34.234Z,0
2016-10-13T05:11:34.289Z,4
2016-10-13T05:12:34.343Z,4
2016-10-13T05:13:34.410Z,0
2016-10-13T05:14:34.457Z,0
2016-10-13T05:15:34.530Z,4
2016-10-13T05:16:34.567Z,0
2016-10-13T05:17:34.904Z,4
2016-10-13T05:18:34.669Z,8
2016-10-13T05:19:34.753Z,4
2016-10-13T05:20:34.768Z,8
2016-10-13T05:21:34.855Z,8
2016-10-13T05:22:34.909Z,12
2016-10-13T05:23:34.961Z,12
2016-10-13T05:24:35.010Z,12
2016-10-13T05:25:35.057Z,16
2016-10-13T05:26:35.121Z,16
2016-10-13T05:27:35.184Z,16
2016-10-13T05:28:35.240Z,20
2016-10-13T05:29:35.280Z,24
2016-10-13T05:30:35.347Z,24
2016-10-13T05:31:35.384Z,28
2016-10-13T05:32:35.445Z,32
2016-10-13T05:33:35.513Z,36
2016-10-13T05:34:35.550Z,40
2016-10-13T05:35:35.592Z,44
2016-10-13T05:36:35.647Z,52
2016-10-13T05:37:35.723Z,52
2016-10-13T05:38:35.777Z,60
2016-10-13T05:39:35.842Z,68
2016-10-13T05:40:35.870Z,76
2016-10-13T05:41:35.953Z,88
2016-10-13T05:42:36.006Z,108
2016-10-13T05:43:36.064Z,120
2016-10-13T05:44:36.110Z,128
2016-10-13T05:45:36.157Z,140
2016-10-13T05:46:36.213Z,128
2016-10-13T05:47:36.269Z,120
2016-10-13T05:48:36.337Z,128
2016-10-13T05:49:36.406Z,132
2016-10-13T05:50:36.425Z,132
2016-10-13T05:51:36.480Z,128
2016-10-13T05:52:36.546Z,132
2016-10-13T05:53:36.601Z,148
2016-10-13T05:54:36.641Z,152
2016-10-13T05:55:36.716Z,160
2016-10-13T05:56:36.778Z,160
2016-10-13T05:57:36.822Z,164
2016-10-13T05:58:36.871Z,176
2016-10-13T05:59:36.942Z,180
2016-10-13T06:00:37.011Z,184
2016-10-13T06:01:37.076Z,192
2016-10-13T06:02:37.098Z,200
2016-10-13T06:03:37.179Z,208
2016-10-13T06:04:37.232Z,212
2016-10-13T06:05:37.261Z,216
2016-10-13T06:06:37.329Z,212
2016-10-13T06:07:37.378Z,216
2016-10-13T06:08:37.443Z,224
2016-10-13T06:09:37.511Z,232
2016-10-13T06:10:37.558Z,252
2016-10-13T06:11:37.604Z,268
2016-10-13T06:12:37.656Z,280
2016-10-13T06:13:37.710Z,284
2016-10-13T06:14:37.786Z,288
2016-10-13T06:15:37.844Z,284
2016-10-13T06:16:37.884Z,300
2016-10-13T06:17:37.940Z,312
2016-10-13T06:18:38.003Z,328
2016-10-13T06:19:38.063Z,340
2016-10-13T06:20:38.099Z,348
2016-10-13T06:21:38.157Z,364
2016-10-13T06:22:38.227Z,376
2016-10-13T06:23:38.259Z,404
2016-10-13T06:24:38.311Z,416
2016-10-13T06:25:38.405Z,428
2016-10-13T06:26:38.435Z,444
2016-10-13T06:27:38.510Z,448
2016-10-13T06:28:38.558Z,452
2016-10-13T06:29:38.611Z,456
2016-10-13T06:30:38.648Z,456
2016-10-13T06:31:38.707Z,456
2016-10-13T06:32:38.778Z,456
2016-10-13T06:33:38.831Z,468
2016-10-13T06:34:38.881Z,468
2016-10-13T06:35:38.955Z,456
2016-10-13T06:36:39.013Z,452
2016-10-13T06:37:39.370Z,456
2016-10-13T06:38:39.109Z,464
2016-10-13T06:39:39.177Z,464
2016-10-13T06:40:39.513Z,472
2016-10-13T06:41:39.294Z,472
2016-10-13T06:42:39.324Z,472
2016-10-13T06:43:39.387Z,496
2016-10-13T06:44:39.442Z,512
2016-10-13T06:45:39.499Z,524
2016-10-13T06:46:39.547Z,548
2016-10-13T06:47:39.586Z,572
2016-10-13T06:48:39.646Z,576
2016-10-13T06:49:39.720Z,592
2016-10-13T06:50:39.761Z,608
2016-10-13T06:51:39.819Z,632
2016-10-13T06:52:39.864Z,652
2016-10-13T06:53:39.927Z,684
2016-10-13T06:54:39.998Z,708
2016-10-13T06:55:40.043Z,716
2016-10-13T06:56:40.088Z,716
2016-10-13T06:57:40.141Z,712
2016-10-13T06:58:40.198Z,728
2016-10-13T06:59:40.253Z,744
2016-10-13T07:00:40.317Z,764
2016-10-13T07:01:40.393Z,792
2016-10-13T07:02:40.441Z,808
2016-10-13T07:03:40.497Z,824
2016-10-13T07:04:40.574Z,832
2016-10-13T07:05:40.606Z,848
2016-10-13T07:06:40.678Z,868
2016-10-13T07:07:40.734Z,872
2016-10-13T07:08:40.789Z,884
2016-10-13T07:09:40.815Z,888
2016-10-13T07:10:40.879Z,940
2016-10-13T07:11:40.931Z,968
2016-10-13T07:12:41.015Z,960
2016-10-13T07:13:41.052Z,1016
2016-10-13T07:14:41.101Z,988
2016-10-13T07:15:41.463Z,1024
2016-10-13T07:16:41.212Z,992
2016-10-13T07:17:41.256Z,1012
2016-10-13T07:18:41.329Z,1044
2016-10-13T07:19:41.394Z,1088
2016-10-13T07:20:41.442Z,1132
2016-10-13T07:21:41.503Z,1192
2016-10-13T07:22:41.555Z,1232
2016-10-13T07:23:41.602Z,1244
2016-10-13T07:24:41.658Z,1264
2016-10-13T07:25:41.726Z,1280
2016-10-13T07:26:41.793Z,1288
2016-10-13T07:27:41.832Z,1276
2016-10-13T07:28:41.862Z,1252
2016-10-13T07:29:41.936Z,1244
2016-10-13T07:30:42.005Z,1232
2016-10-13T07:31:42.068Z,1224
2016-10-13T07:32:42.111Z,1224
2016-10-13T07:33:42.150Z,1212
2016-10-13T07:34:42.236Z,1200
2016-10-13T07:35:42.256Z,1184
2016-10-13T07:36:42.308Z,1208
2016-10-13T07:37:42.383Z,1224
2016-10-13T07:38:42.438Z,1228
2016-10-13T07:39:42.510Z,1228
2016-10-13T07:40:42.860Z,1232
2016-10-13T07:41:42.624Z,1252
2016-10-13T07:42:42.661Z,1284
2016-10-13T07:43:42.723Z,1300
2016-10-13T07:44:42.771Z,1332
2016-10-13T07:45:42.825Z,1364
2016-10-13T07:46:42.899Z,1376
2016-10-13T07:47:42.940Z,1392
2016-10-13T07:48:43.006Z,1388
2016-10-13T07:49:43.067Z,1388
2016-10-13T07:50:43.112Z,1404
2016-10-13T07:51:43.166Z,1428
2016-10-13T07:52:43.213Z,1472
2016-10-13T07:53:43.285Z,1512
2016-10-13T07:54:43.355Z,1536
2016-10-13T07:55:43.382Z,1552
2016-10-13T07:56:43.431Z,1552
2016-10-13T07:57:43.479Z,1532
2016-10-13T07:58:43.570Z,1548
2016-10-13T07:59:43.623Z,1572
2016-10-13T08:00:43.678Z,1612
2016-10-13T08:01:43.714Z,1624
2016-10-13T08:02:43.789Z,1644
2016-10-13T08:03:43.847Z,1668
2016-10-13T08:04:43.873Z,1720
2016-10-13T08:05:43.958Z,1720
2016-10-13T08:06:43.993Z,1768
2016-10-13T08:07:44.046Z,1784
2016-10-13T08:08:44.103Z,1800
2016-10-13T08:09:44.152Z,1832
2016-10-13T08:10:44.233Z,1856
2016-10-13T08:11:44.271Z,1864
2016-10-13T08:12:44.333Z,1924
2016-10-13T08:13:44.388Z,1932
2016-10-13T08:14:44.442Z,1956
2016-10-13T08:15:44.494Z,2048
2016-10-13T08:16:44.555Z,2076
2016-10-13T08:17:44.594Z,2048
2016-10-13T08:18:44.655Z,2088
2016-10-13T08:19:44.724Z,2076
2016-10-13T08:20:44.776Z,2064
2016-10-13T08:21:44.832Z,2024
2016-10-13T08:22:44.882Z,2016
2016-10-13T08:23:44.952Z,2020
2016-10-13T08:24:44.991Z,1984
2016-10-13T08:25:45.044Z,2008
2016-10-13T08:26:45.109Z,1984
2016-10-13T08:27:45.162Z,2020
2016-10-13T08:28:45.242Z,2040
2016-10-13T08:29:45.269Z,2052
2016-10-13T08:30:45.322Z,2128
2016-10-13T08:31:45.397Z,2152
2016-10-13T08:32:45.460Z,2188
2016-10-13T08:33:45.493Z,2204
2016-10-13T08:34:45.553Z,2224
2016-10-13T08:35:45.617Z,2216
2016-10-13T08:36:45.666Z,2212
2016-10-13T08:37:45.713Z,2200
2016-10-13T08:38:45.769Z,2204
2016-10-13T08:39:45.811Z,2212
2016-10-13T08:40:45.886Z,2204
2016-10-13T08:41:45.937Z,2216
2016-10-13T08:42:46.011Z,2224
2016-10-13T08:43:46.055Z,2224
2016-10-13T08:44:46.104Z,2224
2016-10-13T08:45:46.159Z,2240
2016-10-13T08:46:46.221Z,2256
2016-10-13T08:47:46.267Z,2244
2016-10-13T08:48:46.332Z,2264
2016-10-13T08:49:46.389Z,2288
2016-10-13T08:50:46.444Z,2296
2016-10-13T08:51:46.494Z,2360
2016-10-13T08:52:46.553Z,2368
2016-10-13T08:53:46.590Z,2368
2016-10-13T08:54:46.648Z,2444
2016-10-13T08:55:46.710Z,2500
2016-10-13T08:56:46.771Z,2588
2016-10-13T08:57:46.845Z,2644
2016-10-13T08:58:46.883Z,2680
2016-10-13T08:59:46.962Z,2716
2016-10-13T09:00:46.981Z,2696
2016-10-13T09:01:47.033Z,2736
2016-10-13T09:02:47.102Z,2716
2016-10-13T09:03:47.181Z,2684
2016-10-13T09:04:47.241Z,2652
2016-10-13T09:05:47.273Z,2628
2016-10-13T09:06:47.326Z,2592
2016-10-13T09:07:47.367Z,2596
2016-10-13T09:08:47.445Z,2636
2016-10-13T09:09:47.491Z,2672
2016-10-13T09:10:47.559Z,2748
2016-10-13T09:11:47.596Z,2808
2016-10-13T09:12:47.658Z,2772
2016-10-13T09:13:47.724Z,2868
2016-10-13T09:14:47.768Z,2940
2016-10-13T09:15:47.832Z,2944
2016-10-13T09:16:47.881Z,2872
2016-10-13T09:17:47.939Z,2996
2016-10-13T09:18:47.999Z,3088
2016-10-13T09:19:48.036Z,3096
2016-10-13T09:20:48.121Z,3044
2016-10-13T09:21:48.169Z,3052
2016-10-13T09:22:48.222Z,3052
2016-10-13T09:23:48.265Z,3100
2016-10-13T09:24:48.334Z,3092
2016-10-13T09:25:48.398Z,3248
2016-10-13T09:26:48.433Z,3284
2016-10-13T09:27:48.500Z,3360
2016-10-13T09:28:48.547Z,3368
2016-10-13T09:29:48.606Z,3412
2016-10-13T09:30:48.647Z,3376
2016-10-13T09:31:48.704Z,3344
2016-10-13T09:32:48.774Z,3424
2016-10-13T09:33:48.823Z,3472
2016-10-13T09:34:48.872Z,3584
2016-10-13T09:35:48.954Z,3700
2016-10-13T09:36:48.999Z,3684
2016-10-13T09:37:49.052Z,3724
2016-10-13T09:38:49.102Z,3776
2016-10-13T09:39:49.143Z,3684
2016-10-13T09:40:49.198Z,3668
2016-10-13T09:41:49.289Z,3596
2016-10-13T09:42:49.330Z,3648
2016-10-13T09:43:49.375Z,3684
2016-10-13T09:44:49.442Z,3728
2016-10-13T09:45:49.511Z,3704
2016-10-13T09:46:49.567Z,3696
2016-10-13T09:47:49.596Z,3716
2016-10-13T09:48:49.670Z,3724
2016-10-13T09:49:49.735Z,3800
2016-10-13T09:50:49.754Z,3840
2016-10-13T09:51:49.832Z,3876
2016-10-13T09:52:50.194Z,3756
2016-10-13T09:53:49.935Z,3656
2016-10-13T09:54:50.015Z,3676
2016-10-13T09:55:50.061Z,3824
2016-10-13T09:56:50.124Z,3832
2016-10-13T09:57:50.157Z,3808
2016-10-13T09:58:50.208Z,3804
2016-10-13T09:59:50.286Z,3852
2016-10-13T10:00:50.312Z,3804
2016-10-13T10:01:50.380Z,3828
2016-10-13T10:02:50.658Z,3860
2016-10-13T10:03:50.515Z,3848
2016-10-13T10:04:50.556Z,3804
2016-10-13T10:05:50.601Z,3752
2016-10-13T10:06:50.672Z,3732
2016-10-13T10:07:50.737Z,3788
2016-10-13T10:08:50.774Z,3796
2016-10-13T10:09:50.834Z,3824
2016-10-13T10:10:50.909Z,3884
2016-10-13T10:11:50.928Z,3968
2016-10-13T10:12:50.984Z,3952
2016-10-13T10:13:51.074Z,3956
2016-10-13T10:14:51.130Z,3952
2016-10-13T10:15:51.174Z,3772
2016-10-13T10:16:51.230Z,3988
2016-10-13T10:17:51.280Z,4132
2016-10-13T10:18:51.335Z,4260
2016-10-13T10:19:51.404Z,4396
2016-10-13T10:20:51.494Z,4468
2016-10-13T10:21:51.507Z,4616
2016-10-13T10:22:51.552Z,4648
2016-10-13T10:23:51.634Z,5056
2016-10-13T10:24:51.662Z,5184
2016-10-13T10:25:51.734Z,5140
2016-10-13T10:26:51.784Z,5036
2016-10-13T10:27:51.833Z,4852
2016-10-13T10:28:51.902Z,4940
2016-10-13T10:29:51.937Z,5156
2016-10-13T10:30:52.008Z,5288
2016-10-13T10:31:52.086Z,5300
2016-10-13T10:32:52.108Z,5200
2016-10-13T10:33:52.176Z,5340
2016-10-13T10:34:52.253Z,5536
2016-10-13T10:35:52.283Z,5704
2016-10-13T10:36:52.352Z,5956
2016-10-13T10:37:52.421Z,5996
2016-10-13T10:38:52.462Z,6160
2016-10-13T10:39:52.519Z,6324
2016-10-13T10:40:52.591Z,6492
2016-10-13T10:41:52.654Z,6660
2016-10-13T10:42:53.006Z,6624
2016-10-13T10:43:52.747Z,6620
2016-10-13T10:44:52.787Z,6812
2016-10-13T10:45:52.838Z,6968
2016-10-13T10:46:53.202Z,7056
2016-10-13T10:47:52.976Z,7128
2016-10-13T10:48:53.007Z,7252
2016-10-13T10:49:53.385Z,7432
2016-10-13T10:50:53.147Z,7756
2016-10-13T10:51:53.197Z,7944
2016-10-13T10:52:53.240Z,7932
2016-10-13T10:53:53.618Z,8196
2016-10-13T10:54:53.653Z,9788
2016-10-13T10:55:53.724Z,14996
2016-10-13T10:56:53.767Z,17992
2016-10-13T10:57:53.529Z,16568
2016-10-13T10:58:53.592Z,16452
2016-10-13T10:59:53.649Z,18616
2016-10-13T11:00:53.688Z,19456
2016-10-13T11:01:53.738Z,16544
2016-10-13T11:02:53.800Z,15048
2016-10-13T11:03:53.856Z,12472
2016-10-13T11:04:53.909Z,12540
2016-10-13T11:05:53.990Z,12968
2016-10-13T11:06:54.049Z,12556
2016-10-13T11:07:54.083Z,15196
2016-10-13T11:08:54.161Z,16252
2016-10-13T11:09:54.208Z,15948
2016-10-13T11:10:54.279Z,16648
2016-10-13T11:11:54.318Z,15300
2016-10-13T11:12:54.378Z,15224
2016-10-13T11:13:54.442Z,16256
2016-10-13T11:14:54.473Z,15756
2016-10-13T11:15:54.565Z,13820
2016-10-13T11:16:54.595Z,15112
2016-10-13T11:17:54.657Z,16256
2016-10-13T11:18:54.713Z,17064
2016-10-13T11:19:54.766Z,18092
2016-10-13T11:20:54.812Z,18528
2016-10-13T11:21:54.896Z,20736
2016-10-13T11:22:54.919Z,21888
2016-10-13T11:23:54.973Z,22624
2016-10-13T11:24:55.050Z,20416
2016-10-13T11:25:55.121Z,19904
2016-10-13T11:26:55.156Z,19776
2016-10-13T11:27:55.212Z,21024
2016-10-13T11:28:55.276Z,20672
2016-10-13T11:29:55.327Z,20576
2016-10-13T11:30:55.396Z,21824
2016-10-13T11:31:55.443Z,22400
2016-10-13T11:32:55.495Z,22208
2016-10-13T11:33:55.539Z,23584
2016-10-13T11:34:55.625Z,24640
2016-10-13T11:35:55.670Z,24960
2016-10-13T11:36:55.704Z,24288
2016-10-13T11:37:55.776Z,24096
2016-10-13T11:38:55.823Z,22304
2016-10-13T11:39:55.900Z,23968
2016-10-13T11:40:55.937Z,25952
2016-10-13T11:41:55.989Z,29216
2016-10-13T11:42:56.069Z,32480
2016-10-13T11:43:56.115Z,34016
2016-10-13T11:44:56.168Z,32640
2016-10-13T11:45:56.233Z,31936
2016-10-13T11:46:56.276Z,33792
2016-10-13T11:47:56.330Z,33856
2016-10-13T11:48:56.396Z,35968
2016-10-13T11:49:56.471Z,36448
2016-10-13T11:50:56.507Z,35552
2016-10-13T11:51:56.571Z,35392
2016-10-13T11:52:56.623Z,37376
2016-10-13T11:53:56.676Z,30688
2016-10-13T11:54:56.738Z,36192
2016-10-13T11:55:56.804Z,40096
2016-10-13T11:56:56.852Z,38912
2016-10-13T11:57:56.930Z,37504
2016-10-13T11:58:56.965Z,40416
2016-10-13T11:59:57.013Z,41088
2016-10-13T12:00:57.083Z,41632
2016-10-13T12:01:57.143Z,43264
2016-10-13T12:02:57.191Z,40448
2016-10-13T12:03:57.232Z,43264
2016-10-13T12:04:57.304Z,44320
2016-10-13T12:05:57.364Z,41984
2016-10-13T12:06:57.425Z,42240
2016-10-13T12:07:57.483Z,38176
2016-10-13T12:08:57.510Z,38272
2016-10-13T12:09:57.587Z,36128
2016-10-13T12:10:57.656Z,35488
2016-10-13T12:11:57.671Z,35104
2016-10-13T12:12:57.728Z,34080
2016-10-13T12:13:57.797Z,35232
2016-10-13T12:14:57.842Z,35712
2016-10-13T12:15:57.900Z,37344
2016-10-13T12:16:57.961Z,36832
2016-10-13T12:17:58.025Z,35264
2016-10-13T12:18:58.101Z,32512
2016-10-13T12:19:58.160Z,34912
2016-10-13T12:20:58.191Z,34400
2016-10-13T12:21:58.250Z,33856
2016-10-13T12:22:58.320Z,32896
2016-10-13T12:23:58.352Z,28896
2016-10-13T12:24:58.417Z,26304
2016-10-13T12:25:58.475Z,25888
2016-10-13T12:26:58.531Z,25088
2016-10-13T12:27:58.609Z,21376
2016-10-13T12:28:58.652Z,20576
2016-10-13T12:29:58.705Z,18764
2016-10-13T12:30:58.742Z,17668
2016-10-13T12:31:58.799Z,17484
2016-10-13T12:32:58.891Z,18700
2016-10-13T12:33:58.925Z,18784
2016-10-13T12:34:59.003Z,18208
2016-10-13T12:35:59.065Z,18720
2016-10-13T12:36:59.080Z,14176
2016-10-13T12:37:59.139Z,16276
2016-10-13T12:38:59.213Z,15936
2016-10-13T12:39:59.258Z,11892
2016-10-13T12:40:59.305Z,15312
2016-10-13T12:41:59.395Z,14796
2016-10-13T12:42:59.430Z,16144
2016-10-13T12:43:59.496Z,15164
2016-10-13T12:44:59.549Z,15336
2016-10-13T12:45:59.617Z,14368
2016-10-13T12:46:59.671Z,14892
2016-10-13T12:47:59.711Z,13924
2016-10-13T12:48:59.754Z,13608
2016-10-13T12:49:59.832Z,13168
2016-10-13T12:50:59.902Z,13564
2016-10-13T12:51:59.923Z,13876
2016-10-13T12:53:00.006Z,13896
2016-10-13T12:54:00.034Z,13772
2016-10-13T12:55:00.103Z,12456
2016-10-13T12:56:00.181Z,12476
2016-10-13T12:57:00.238Z,11132
2016-10-13T12:58:00.281Z,11020
2016-10-13T12:59:00.330Z,10836
2016-10-13T13:00:00.399Z,10952
2016-10-13T13:01:00.460Z,11340
2016-10-13T13:02:00.496Z,12288
2016-10-13T13:03:00.555Z,12660
2016-10-13T13:04:00.604Z,12596
2016-10-13T13:05:00.687Z,12876
2016-10-13T13:06:00.749Z,12476
2016-10-13T13:07:00.782Z,11300
2016-10-13T13:08:00.842Z,9584
2016-10-13T13:09:00.899Z,8752
2016-10-13T13:10:00.952Z,6140
2016-10-13T13:11:00.990Z,7224
2016-10-13T13:12:01.045Z,6848
2016-10-13T13:13:01.137Z,6524
2016-10-13T13:14:01.184Z,6208
2016-10-13T13:15:01.243Z,4900
2016-10-13T13:16:01.298Z,4168
2016-10-13T13:17:01.355Z,3832
2016-10-13T13:18:01.405Z,3556
2016-10-13T13:19:01.453Z,3356
2016-10-13T13:20:01.505Z,3224
2016-10-13T13:21:01.559Z,2996
2016-10-13T13:22:01.627Z,2792
2016-10-13T13:23:01.678Z,2712
2016-10-13T13:24:01.733Z,2684
2016-10-13T13:25:01.801Z,2768
2016-10-13T13:26:01.845Z,2924
2016-10-13T13:27:01.904Z,3216
2016-10-13T13:28:01.952Z,3540
2016-10-13T13:29:02.018Z,3732
2016-10-13T13:30:02.061Z,3756
2016-10-13T13:31:02.134Z,3700
2016-10-13T13:32:02.181Z,3652
2016-10-13T13:33:02.257Z,3688
2016-10-13T13:34:02.314Z,3684
2016-10-13T13:35:02.334Z,3692
2016-10-13T13:36:02.404Z,3672
2016-10-13T13:37:02.469Z,3708
2016-10-13T13:38:02.522Z,3696
2016-10-13T13:39:02.576Z,3660
2016-10-13T13:40:02.636Z,3584
2016-10-13T13:41:02.693Z,3528
2016-10-13T13:42:02.746Z,3456
2016-10-13T13:43:02.785Z,3460
2016-10-13T13:44:02.867Z,3304
2016-10-13T13:45:02.916Z,3272
2016-10-13T13:46:02.971Z,3168
2016-10-13T13:47:03.020Z,3104
2016-10-13T13:48:03.085Z,2964
2016-10-13T13:49:03.135Z,2836
2016-10-13T13:50:03.210Z,2708
2016-10-13T13:51:03.243Z,2640